Time;durP1;ratioP1;P1;durP2;ratioP2;P2;SDS_P1;SDS_P2;PMS_P1;PMS_P2;Temp;Humidity;BMP_temperature;BMP_pressure;BME280_temperature;BME280_humidity;BME280_pressure;Samples;Min_cycle;Max_cycle;Signal;HPM_P1;HPM_P2
2020/12/21 00:01:55;;;;;;;10.43;2.90;;;5.30;99.90;;;;;;5012922;28;20186;-76
2020/12/21 00:04:21;;;;;;;8.35;3.13;;;5.30;99.90;;;;;;5013278;28;20182;-76
2020/12/21 00:06:54;;;;;;;8.05;2.95;;;5.30;99.90;;;;;;5013304;28;20207;-77
2020/12/21 00:09:20;;;;;;;5.97;2.92;;;5.30;99.90;;;;;;5013191;28;20694;-78
2020/12/21 00:11:47;;;;;;;8.80;3.22;;;5.20;99.90;;;;;;5012870;28;20602;-78
2020/12/21 00:14:12;;;;;;;5.85;3.13;;;5.20;99.90;;;;;;5012870;28;20601;-77
2020/12/21 00:16:43;;;;;;;6.80;3.53;;;5.10;99.90;;;;;;5013104;28;20171;-77
2020/12/21 00:19:10;;;;;;;3.60;2.15;;;5.10;99.90;;;;;;5013248;28;20183;-75
2020/12/21 00:21:37;;;;;;;5.30;2.30;;;5.10;99.90;;;;;;5012909;28;20195;-75
2020/12/21 00:24:04;;;;;;;9.77;3.22;;;5.10;99.90;;;;;;5013119;28;20175;-76
2020/12/21 00:26:30;;;;;;;5.68;2.80;;;5.10;99.90;;;;;;5016925;28;20233;-77
2020/12/21 00:28:55;;;;;;;6.53;2.60;;;5.00;99.90;;;;;;5017074;28;20198;-76
2020/12/21 00:31:25;;;;;;;7.17;2.40;;;5.00;99.90;;;;;;5015372;28;20191;-77
2020/12/21 00:33:51;;;;;;;7.15;2.45;;;4.90;99.90;;;;;;5016800;28;20174;-76
2020/12/21 00:36:18;;;;;;;6.63;2.65;;;4.90;99.90;;;;;;5016559;28;20183;-78
2020/12/21 00:38:43;;;;;;;7.10;2.50;;;4.90;99.90;;;;;;5016586;28;20685;-77
2020/12/21 00:41:13;;;;;;;7.33;2.77;;;4.80;99.90;;;;;;5016747;28;20202;-75
2020/12/21 00:43:39;;;;;;;5.57;2.70;;;4.80;99.90;;;;;;5015151;28;20192;-75
2020/12/21 00:46:05;;;;;;;3.53;2.20;;;4.70;99.90;;;;;;5016435;28;20171;-76
2020/12/21 00:48:31;;;;;;;7.30;3.00;;;4.70;99.90;;;;;;5015305;28;20451;-77
2020/12/21 00:50:57;;;;;;;5.73;2.83;;;4.70;99.90;;;;;;5015255;28;20196;-76
2020/12/21 00:53:23;;;;;;;9.75;3.38;;;4.70;99.90;;;;;;5016147;28;20409;-76
2020/12/21 00:55:49;;;;;;;13.10;2.60;;;4.60;99.90;;;;;;5016295;28;20340;-76
2020/12/21 00:58:16;;;;;;;7.17;2.70;;;4.70;99.90;;;;;;5016198;28;20774;-78
2020/12/21 01:00:41;;;;;;;7.57;2.78;;;4.60;99.90;;;;;;5016193;28;20510;-75
2020/12/21 01:03:07;;;;;;;17.43;3.23;;;4.60;99.90;;;;;;5016037;28;20308;-77
2020/12/21 01:05:34;;;;;;;8.03;2.80;;;4.50;99.90;;;;;;5016183;28;20177;-77
2020/12/21 01:08:00;;;;;;;7.15;3.53;;;4.50;99.90;;;;;;5016260;28;20598;-75
2020/12/21 01:10:25;;;;;;;9.93;2.97;;;4.40;99.90;;;;;;5015913;28;20178;-76
2020/12/21 01:12:51;;;;;;;7.80;3.10;;;4.50;99.90;;;;;;5015789;28;20171;-77
2020/12/21 01:15:16;;;;;;;7.30;3.53;;;4.50;99.90;;;;;;5016003;28;20202;-77
2020/12/21 01:17:42;;;;;;;4.87;2.43;;;4.40;99.90;;;;;;5015865;28;20205;-77
2020/12/21 01:20:07;;;;;;;7.53;3.27;;;4.40;99.90;;;;;;5015756;28;20186;-77
2020/12/21 01:22:33;;;;;;;12.13;3.13;;;4.50;99.90;;;;;;5015304;28;20197;-76
2020/12/21 01:24:59;;;;;;;6.40;3.20;;;4.50;99.90;;;;;;5014520;28;20249;-77
2020/12/21 01:27:24;;;;;;;7.80;3.03;;;4.50;99.90;;;;;;5015696;28;20190;-75
2020/12/21 01:29:50;;;;;;;6.17;2.60;;;4.40;99.90;;;;;;5015728;28;20653;-77
2020/12/21 01:32:15;;;;;;;8.10;2.50;;;4.40;99.90;;;;;;5015383;28;20198;-76
2020/12/21 01:34:41;;;;;;;10.43;3.33;;;4.40;99.90;;;;;;5015710;28;20186;-77
2020/12/21 01:37:06;;;;;;;7.47;3.60;;;4.40;99.90;;;;;;5013227;28;20230;-77
2020/12/21 01:39:32;;;;;;;11.70;3.80;;;4.40;99.90;;;;;;5015854;28;20682;-75
2020/12/21 01:41:58;;;;;;;8.07;3.70;;;4.40;99.90;;;;;;5015244;28;20202;-74
2020/12/21 01:44:23;;;;;;;6.30;2.90;;;4.30;99.90;;;;;;5015794;28;20258;-77
2020/12/21 01:46:49;;;;;;;9.63;2.33;;;4.40;99.90;;;;;;5015337;28;20241;-76
2020/12/21 01:49:15;;;;;;;5.60;2.50;;;4.30;99.90;;;;;;5015271;28;20247;-74
2020/12/21 01:51:41;;;;;;;6.33;3.97;;;4.30;99.90;;;;;;5015344;28;20257;-76
2020/12/21 01:54:08;;;;;;;7.82;2.47;;;4.30;99.90;;;;;;5013825;28;20569;-77
2020/12/21 01:56:35;;;;;;;9.27;3.13;;;4.30;99.90;;;;;;5015319;28;20171;-76
2020/12/21 01:59:02;;;;;;;9.07;2.70;;;4.20;99.90;;;;;;5015345;28;20636;-74
2020/12/21 02:01:29;;;;;;;9.73;3.58;;;4.20;99.90;;;;;;5015096;28;20195;-77
2020/12/21 02:03:54;;;;;;;7.05;3.20;;;4.20;99.90;;;;;;5014909;28;20167;-75
2020/12/21 02:06:20;;;;;;;6.83;2.70;;;4.20;99.90;;;;;;5015143;28;20193;-77
2020/12/21 02:08:46;;;;;;;8.90;3.13;;;4.20;99.90;;;;;;5014915;28;20277;-75
2020/12/21 02:11:12;;;;;;;15.07;2.93;;;4.30;99.90;;;;;;5014937;28;20279;-77
2020/12/21 02:13:37;;;;;;;2.93;1.97;;;4.30;99.90;;;;;;5014628;28;20492;-75
2020/12/21 02:16:04;;;;;;;7.70;3.00;;;4.30;99.90;;;;;;5014863;28;20276;-76
2020/12/21 02:18:29;;;;;;;11.60;3.65;;;4.30;99.90;;;;;;5014845;28;20660;-77
2020/12/21 02:20:55;;;;;;;9.17;2.97;;;4.40;99.90;;;;;;5014515;28;20195;-75
2020/12/21 02:23:21;;;;;;;4.87;2.47;;;4.40;99.90;;;;;;5014637;28;20522;-77
2020/12/21 02:25:47;;;;;;;11.10;3.00;;;4.40;99.90;;;;;;5014648;28;20175;-75
2020/12/21 02:28:12;;;;;;;9.50;2.83;;;4.40;99.90;;;;;;5013338;28;20179;-76
2020/12/21 02:30:38;;;;;;;9.23;2.93;;;4.40;99.90;;;;;;5014482;28;20847;-77
2020/12/21 02:33:07;;;;;;;8.30;2.30;;;4.40;99.90;;;;;;5012860;28;20179;-76
2020/12/21 02:35:34;;;;;;;10.30;2.65;;;4.40;99.90;;;;;;5014432;28;20265;-76
2020/12/21 02:38:06;;;;;;;7.20;2.53;;;4.40;99.90;;;;;;5014475;28;20245;-74
2020/12/21 02:40:32;;;;;;;11.45;2.75;;;4.40;99.90;;;;;;5014364;28;20195;-76
2020/12/21 02:42:58;;;;;;;7.05;2.55;;;4.40;99.90;;;;;;5014032;28;20237;-76
2020/12/21 02:45:24;;;;;;;4.93;2.23;;;4.40;99.90;;;;;;5014535;28;20171;-77
2020/12/21 02:47:49;;;;;;;5.33;2.47;;;4.40;99.90;;;;;;5014106;28;20171;-75
2020/12/21 02:50:15;;;;;;;5.00;2.37;;;4.40;99.90;;;;;;5014370;28;20187;-74
2020/12/21 02:52:40;;;;;;;7.90;1.70;;;4.40;99.90;;;;;;5014011;28;20513;-74
2020/12/21 02:55:07;;;;;;;9.83;2.60;;;4.30;99.90;;;;;;5014257;28;20210;-76
2020/12/21 02:57:32;;;;;;;8.07;2.38;;;4.30;99.90;;;;;;5014232;28;20214;-77
2020/12/21 02:59:58;;;;;;;13.83;3.07;;;4.30;99.90;;;;;;5014195;28;20530;-75
2020/12/21 03:02:24;;;;;;;6.40;2.27;;;4.40;99.90;;;;;;5013720;28;20694;-76
2020/12/21 03:04:49;;;;;;;4.33;2.30;;;4.30;99.90;;;;;;5013937;28;20519;-74
2020/12/21 03:07:15;;;;;;;7.17;2.00;;;4.30;99.90;;;;;;5013847;28;20189;-77
2020/12/21 03:09:40;;;;;;;10.07;2.57;;;4.30;99.90;;;;;;5013944;28;20640;-75
2020/12/21 03:12:06;;;;;;;7.73;2.50;;;4.30;99.90;;;;;;5013500;28;20234;-77
2020/12/21 03:14:31;;;;;;;6.50;2.10;;;4.30;99.90;;;;;;5013909;28;20177;-75
2020/12/21 03:16:57;;;;;;;13.77;2.53;;;4.30;99.90;;;;;;5013828;28;20706;-75
2020/12/21 03:19:23;;;;;;;2.97;1.93;;;4.30;99.90;;;;;;5013675;28;20178;-76
2020/12/21 03:21:48;;;;;;;9.07;2.50;;;4.30;99.90;;;;;;5013598;28;20191;-77
2020/12/21 03:24:14;;;;;;;8.33;2.10;;;4.20;99.90;;;;;;5013497;28;20193;-75
2020/12/21 03:26:39;;;;;;;5.07;2.30;;;4.30;99.90;;;;;;5013750;28;20185;-76
2020/12/21 03:29:05;;;;;;;3.47;2.43;;;4.30;99.90;;;;;;5013650;28;20635;-76
2020/12/21 03:31:31;;;;;;;9.23;2.20;;;4.30;99.90;;;;;;5013330;28;20741;-75
2020/12/21 03:33:56;;;;;;;7.83;2.20;;;4.30;99.90;;;;;;5013264;28;20179;-76
2020/12/21 03:36:22;;;;;;;6.10;2.30;;;4.30;99.90;;;;;;5013616;28;20194;-75
2020/12/21 03:38:47;;;;;;;9.50;2.57;;;4.30;99.90;;;;;;5012225;28;20307;-74
2020/12/21 03:41:13;;;;;;;6.67;2.00;;;4.40;99.90;;;;;;5013448;28;20267;-75
2020/12/21 03:43:38;;;;;;;7.20;2.33;;;4.50;99.90;;;;;;5013096;28;20175;-76
2020/12/21 03:46:04;;;;;;;11.07;2.50;;;4.40;99.90;;;;;;5012420;28;20181;-76
2020/12/21 03:48:29;;;;;;;6.07;2.30;;;4.40;99.90;;;;;;5013444;28;20297;-74
2020/12/21 03:50:55;;;;;;;9.17;2.57;;;4.40;99.90;;;;;;5013371;28;20679;-76
2020/12/21 03:53:21;;;;;;;6.13;3.10;;;4.40;99.90;;;;;;5013285;28;20182;-74
2020/12/21 03:55:46;;;;;;;12.10;2.60;;;4.40;99.90;;;;;;5013248;28;20183;-75
2020/12/21 03:58:12;;;;;;;9.17;2.37;;;4.40;99.90;;;;;;5013550;28;20202;-75
2020/12/21 04:00:37;;;;;;;9.90;2.40;;;4.30;99.90;;;;;;5016780;28;20262;-76
2020/12/21 04:03:03;;;;;;;4.87;2.57;;;4.40;99.90;;;;;;5017869;28;20592;-74
2020/12/21 04:05:28;;;;;;;5.47;2.40;;;4.40;99.90;;;;;;5017451;28;20170;-76
2020/12/21 04:07:54;;;;;;;7.53;2.17;;;4.30;99.90;;;;;;5017159;28;20185;-76
2020/12/21 04:10:19;;;;;;;8.53;2.50;;;4.30;99.90;;;;;;5017310;28;20182;-75
2020/12/21 04:12:46;;;;;;;6.83;2.50;;;4.30;99.90;;;;;;5016892;28;20178;-74
2020/12/21 04:15:12;;;;;;;8.02;2.50;;;4.30;99.90;;;;;;5017164;28;20171;-75
2020/12/21 04:17:38;;;;;;;14.20;2.70;;;4.30;99.90;;;;;;5016874;28;20274;-76
2020/12/21 04:20:04;;;;;;;8.93;2.50;;;4.30;99.90;;;;;;5016948;28;20421;-75
2020/12/21 04:22:29;;;;;;;13.57;1.90;;;4.40;99.90;;;;;;5016630;28;20186;-74
2020/12/21 04:24:55;;;;;;;6.23;1.87;;;4.40;99.90;;;;;;5016908;28;20421;-74
2020/12/21 04:27:20;;;;;;;7.93;2.43;;;4.50;99.90;;;;;;5017008;28;20285;-74
2020/12/21 04:29:46;;;;;;;5.43;2.50;;;4.50;99.90;;;;;;5016969;28;20258;-76
2020/12/21 04:32:12;;;;;;;7.00;2.00;;;4.50;99.90;;;;;;5016329;28;20554;-76
2020/12/21 04:34:37;;;;;;;6.70;2.70;;;4.60;99.90;;;;;;5016852;28;20179;-75
2020/12/21 04:37:03;;;;;;;7.60;2.50;;;4.70;99.90;;;;;;5016791;28;20206;-76
2020/12/21 04:39:30;;;;;;;8.43;3.30;;;4.70;99.90;;;;;;5015505;28;20225;-77
2020/12/21 04:41:57;;;;;;;12.63;2.25;;;4.80;99.90;;;;;;5016200;28;20203;-77
2020/12/21 04:44:24;;;;;;;7.28;2.05;;;4.80;99.90;;;;;;5016580;28;20262;-76
2020/12/21 04:46:57;;;;;;;13.07;3.03;;;4.90;99.90;;;;;;5016593;28;20184;-75
2020/12/21 04:49:23;;;;;;;7.45;3.05;;;5.00;99.90;;;;;;5015375;28;20202;-75
2020/12/21 04:51:50;;;;;;;4.55;1.95;;;5.00;99.90;;;;;;5016544;28;20190;-76
2020/12/21 04:54:19;;;;;;;8.07;2.85;;;5.00;99.90;;;;;;5016281;28;20538;-75
2020/12/21 04:56:45;;;;;;;9.88;3.38;;;5.00;99.90;;;;;;5016414;28;20179;-76
2020/12/21 04:59:12;;;;;;;8.85;2.33;;;5.00;99.90;;;;;;5016422;28;20170;-76
2020/12/21 05:01:39;;;;;;;5.63;1.83;;;5.00;99.90;;;;;;5016297;28;20592;-76
2020/12/21 05:04:05;;;;;;;6.65;1.95;;;5.00;99.90;;;;;;5015778;28;20177;-75
2020/12/21 05:06:31;;;;;;;2.45;1.50;;;5.10;99.90;;;;;;5016202;28;20179;-77
2020/12/21 05:09:00;;;;;;;4.37;1.40;;;5.00;99.90;;;;;;5016147;28;20175;-76
2020/12/21 05:11:26;;;;;;;5.38;1.58;;;5.00;99.90;;;;;;5016015;28;20498;-76
2020/12/21 05:13:52;;;;;;;6.40;2.10;;;5.00;99.90;;;;;;5015754;28;20250;-76
2020/12/21 05:16:24;;;;;;;7.57;2.23;;;5.10;99.90;;;;;;5015900;28;20410;-76
2020/12/21 05:18:49;;;;;;;14.20;2.20;;;5.10;99.90;;;;;;5016055;28;20264;-75
2020/12/21 05:21:15;;;;;;;7.43;1.70;;;5.10;99.90;;;;;;5015836;28;20630;-75
2020/12/21 05:23:55;;;;;;;5.47;2.20;;;5.10;99.90;;;;;;5015544;28;20177;-77
2020/12/21 05:26:29;;;;;;;6.68;2.63;;;5.10;99.90;;;;;;5015732;28;20170;-75
2020/12/21 05:28:55;;;;;;;11.55;1.95;;;5.10;99.90;;;;;;5014531;28;20260;-76
2020/12/21 05:31:22;;;;;;;11.07;2.00;;;5.20;99.90;;;;;;5015661;28;20354;-76
2020/12/21 05:33:48;;;;;;;4.32;1.63;;;5.20;99.90;;;;;;5015277;28;20181;-75
2020/12/21 05:36:15;;;;;;;5.15;1.92;;;5.10;99.90;;;;;;5014346;28;20685;-77
2020/12/21 05:38:42;;;;;;;4.07;2.17;;;5.20;99.90;;;;;;5015506;28;20221;-76
2020/12/21 05:41:13;;;;;;;7.95;2.83;;;5.20;99.90;;;;;;5015496;28;20525;-75
2020/12/21 05:43:42;;;;;;;5.90;1.85;;;5.20;99.90;;;;;;5015107;28;20167;-76
2020/12/21 05:46:17;;;;;;;9.23;2.25;;;5.10;99.90;;;;;;5015304;28;20631;-77
2020/12/21 05:48:48;;;;;;;6.68;3.03;;;5.20;99.90;;;;;;5015262;28;20212;-75
2020/12/21 05:51:36;;;;;;;7.18;2.28;;;5.20;99.90;;;;;;5015297;28;20198;-76
2020/12/21 05:54:05;;;;;;;8.18;2.35;;;5.30;99.90;;;;;;5015010;28;20163;-76
2020/12/21 05:56:33;;;;;;;7.07;2.45;;;5.30;99.90;;;;;;5015204;28;20513;-76
2020/12/21 05:58:59;;;;;;;5.00;2.10;;;5.30;99.90;;;;;;5015193;28;20179;-75
2020/12/21 06:01:26;;;;;;;8.10;3.38;;;5.40;99.90;;;;;;5015054;28;20603;-76
2020/12/21 06:04:03;;;;;;;5.75;2.13;;;5.50;99.90;;;;;;5014910;28;20176;-75
2020/12/21 06:06:30;;;;;;;8.40;2.10;;;5.60;99.90;;;;;;5015315;28;20202;-75
2020/12/21 06:09:01;;;;;;;5.47;2.20;;;5.60;99.90;;;;;;5015149;28;20201;-76
2020/12/21 06:11:31;;;;;;;7.95;2.30;;;5.60;99.90;;;;;;5014985;28;20245;-76
2020/12/21 06:14:08;;;;;;;12.20;2.60;;;5.70;99.90;;;;;;5014757;28;20228;-78
2020/12/21 06:16:36;;;;;;;6.05;2.30;;;5.70;99.90;;;;;;5014786;28;20206;-76
2020/12/21 06:19:10;;;;;;;5.22;2.28;;;5.70;99.90;;;;;;5014835;28;20184;-76
2020/12/21 06:22:02;;;;;;;4.03;2.20;;;5.70;99.90;;;;;;5014318;28;20191;-75
2020/12/21 06:24:28;;;;;;;5.32;2.08;;;5.90;99.90;;;;;;5012692;28;20187;-74
2020/12/21 06:26:54;;;;;;;12.97;2.47;;;5.90;99.90;;;;;;5014500;28;20186;-74
2020/12/21 06:29:25;;;;;;;10.27;2.83;;;6.00;99.90;;;;;;5014637;28;20670;-77
2020/12/21 06:32:01;;;;;;;6.05;2.45;;;6.00;99.90;;;;;;5014419;28;20648;-76
2020/12/21 06:34:29;;;;;;;6.45;2.70;;;6.00;99.90;;;;;;5014563;28;20182;-77
2020/12/21 06:37:06;;;;;;;10.25;2.33;;;5.90;99.90;;;;;;5014298;28;20700;-74
2020/12/21 06:39:32;;;;;;;8.27;2.35;;;6.10;99.90;;;;;;5014640;28;20185;-75
2020/12/21 06:42:05;;;;;;;10.68;2.90;;;6.00;99.90;;;;;;5014167;28;20187;-75
2020/12/21 06:44:32;;;;;;;10.25;2.45;;;6.10;99.90;;;;;;5013070;28;20266;-75
2020/12/21 06:46:59;;;;;;;4.70;2.75;;;6.10;99.90;;;;;;5014252;28;20262;-76
2020/12/21 06:49:25;;;;;;;11.50;2.35;;;6.10;99.90;;;;;;5009187;28;20685;-76
2020/12/21 06:51:51;;;;;;;8.38;2.90;;;6.20;99.90;;;;;;5013651;28;20514;-77
2020/12/21 06:54:17;;;;;;;4.13;2.43;;;6.30;99.90;;;;;;5014213;28;20176;-76
2020/12/21 06:56:46;;;;;;;9.73;2.35;;;6.30;99.90;;;;;;5014375;28;20177;-75
2020/12/21 06:59:14;;;;;;;8.27;2.30;;;6.40;99.90;;;;;;5014100;28;20170;-75
2020/12/21 07:01:41;;;;;;;5.63;2.85;;;6.30;99.90;;;;;;5014136;28;20191;-75
2020/12/21 07:04:14;;;;;;;7.85;1.75;;;6.40;99.90;;;;;;5013834;28;20180;-76
2020/12/21 07:06:41;;;;;;;5.50;2.05;;;6.30;99.90;;;;;;5014053;28;20170;-75
2020/12/21 07:09:07;;;;;;;8.02;2.50;;;6.30;99.90;;;;;;5014117;28;20182;-75
2020/12/21 07:11:33;;;;;;;2.85;2.05;;;6.30;99.90;;;;;;5013879;28;20193;-75
2020/12/21 07:13:59;;;;;;;9.63;2.53;;;6.40;99.90;;;;;;5013676;28;20179;-74
2020/12/21 07:16:26;;;;;;;4.80;2.87;;;6.30;99.90;;;;;;5013862;28;20425;-74
2020/12/21 07:18:51;;;;;;;10.43;2.92;;;6.40;99.90;;;;;;5013903;28;20469;-74
2020/12/21 07:21:17;;;;;;;9.13;2.70;;;6.40;99.90;;;;;;5013631;28;20270;-76
2020/12/21 07:23:43;;;;;;;6.13;2.43;;;6.40;99.90;;;;;;5013735;28;20207;-74
2020/12/21 07:26:11;;;;;;;5.10;3.05;;;6.50;99.90;;;;;;5013702;28;20654;-75
2020/12/21 07:28:37;;;;;;;7.95;2.83;;;6.50;99.90;;;;;;5013659;28;20190;-75
2020/12/21 07:31:17;;;;;;;11.30;2.90;;;6.50;99.90;;;;;;5004979;28;20222;-74
2020/12/21 07:33:56;;;;;;;7.03;2.75;;;6.50;99.90;;;;;;5005616;28;20525;-78
2020/12/21 07:36:27;;;;;;;12.05;2.60;;;6.50;99.90;;;;;;5008062;28;20186;-74
2020/12/21 07:39:03;;;;;;;11.00;2.90;;;6.50;99.90;;;;;;5007904;28;20213;-76
2020/12/21 07:41:30;;;;;;;6.10;2.58;;;6.60;99.90;;;;;;5008870;28;20198;-76
2020/12/21 07:44:15;;;;;;;8.88;3.05;;;6.60;99.90;;;;;;5008132;28;20179;-75
2020/12/21 07:46:54;;;;;;;6.03;2.13;;;6.60;99.90;;;;;;5007743;28;20193;-75
2020/12/21 07:49:20;;;;;;;12.90;2.85;;;6.70;99.90;;;;;;5008248;28;20277;-75
2020/12/21 07:51:47;;;;;;;7.57;2.50;;;6.60;99.90;;;;;;5008844;28;20198;-73
2020/12/21 07:54:13;;;;;;;6.10;2.53;;;6.60;99.90;;;;;;5007365;28;20591;-75
2020/12/21 07:56:42;;;;;;;7.78;2.80;;;6.60;99.90;;;;;;5008094;28;20179;-74
2020/12/21 07:59:15;;;;;;;5.65;2.17;;;6.70;99.90;;;;;;5008260;28;20190;-74
2020/12/21 08:01:41;;;;;;;7.95;3.40;;;6.70;99.90;;;;;;5007846;28;20289;-74
2020/12/21 08:04:34;;;;;;;7.47;2.43;;;6.70;99.90;;;;;;5008672;28;20586;-75
2020/12/21 08:07:10;;;;;;;9.00;2.03;;;6.80;99.90;;;;;;4986493;28;20447;-73
2020/12/21 08:09:39;;;;;;;10.23;3.05;;;6.80;99.90;;;;;;4988898;28;20190;-75
2020/12/21 08:12:16;;;;;;;4.88;2.38;;;6.90;99.90;;;;;;4988318;28;20285;-72
2020/12/21 08:14:42;;;;;;;6.03;2.65;;;6.90;99.90;;;;;;4988307;28;20211;-74
2020/12/21 08:17:17;;;;;;;8.60;3.25;;;7.00;99.90;;;;;;4988572;28;20619;-78
2020/12/21 08:19:56;;;;;;;9.95;2.35;;;6.90;99.90;;;;;;4988604;28;20182;-73
2020/12/21 08:22:22;;;;;;;5.68;2.28;;;7.00;99.90;;;;;;4987419;28;20688;-74
2020/12/21 08:25:09;;;;;;;3.95;2.47;;;7.20;99.90;;;;;;4989260;28;20603;-74
2020/12/21 08:27:36;;;;;;;10.45;2.70;;;7.20;99.90;;;;;;4988444;28;20198;-75
2020/12/21 08:30:18;;;;;;;7.38;2.45;;;7.20;99.90;;;;;;4987915;28;20198;-75
2020/12/21 08:32:44;;;;;;;7.15;2.72;;;7.20;99.90;;;;;;4999626;28;20424;-73
2020/12/21 08:35:10;;;;;;;7.53;2.30;;;7.30;99.90;;;;;;5008492;28;20190;-74
2020/12/21 08:37:36;;;;;;;6.60;2.23;;;7.20;99.90;;;;;;5007334;28;20604;-74
2020/12/21 08:40:12;;;;;;;4.53;2.17;;;7.30;99.90;;;;;;5007813;28;20468;-74
2020/12/21 08:42:38;;;;;;;5.80;1.88;;;7.40;99.90;;;;;;5007792;28;20184;-75
2020/12/21 08:45:04;;;;;;;13.90;2.90;;;7.50;99.90;;;;;;5008137;28;20659;-77
2020/12/21 08:47:30;;;;;;;6.32;2.47;;;7.50;99.90;;;;;;5012291;28;20199;-75
2020/12/21 08:49:55;;;;;;;7.57;1.90;;;7.60;99.90;;;;;;5011391;28;20198;-73
2020/12/21 08:52:21;;;;;;;7.23;2.50;;;7.60;99.90;;;;;;5010671;28;20202;-74
2020/12/21 08:54:46;;;;;;;7.10;2.73;;;7.60;99.90;;;;;;5011618;28;20273;-81
2020/12/21 08:57:12;;;;;;;9.50;2.50;;;7.60;99.90;;;;;;5011974;28;20202;-75
2020/12/21 08:59:39;;;;;;;6.83;2.53;;;7.60;99.90;;;;;;5010849;28;20175;-75
2020/12/21 09:02:05;;;;;;;7.07;2.08;;;7.60;99.90;;;;;;5011594;28;20286;-74
2020/12/21 09:04:31;;;;;;;10.40;2.13;;;7.60;99.90;;;;;;5011176;28;20190;-77
2020/12/21 09:06:56;;;;;;;7.77;2.20;;;7.50;99.90;;;;;;5010672;28;20472;-74
2020/12/21 09:09:22;;;;;;;10.30;2.90;;;7.60;99.90;;;;;;5011307;28;20185;-75
2020/12/21 09:11:53;;;;;;;9.40;1.67;;;7.60;99.90;;;;;;5011583;28;20531;-74
2020/12/21 09:14:18;;;;;;;7.15;2.20;;;7.70;99.90;;;;;;5011083;28;20179;-73
2020/12/21 09:16:44;;;;;;;5.13;2.03;;;7.60;99.90;;;;;;5010910;28;20659;-76
2020/12/21 09:19:09;;;;;;;17.03;2.40;;;7.70;99.90;;;;;;5011120;28;20190;-78
2020/12/21 09:21:35;;;;;;;6.53;2.77;;;7.70;99.90;;;;;;5010882;28;20561;-78
2020/12/21 09:24:01;;;;;;;9.67;2.20;;;7.80;99.90;;;;;;5010831;28;20187;-76
2020/12/21 09:26:27;;;;;;;6.78;2.60;;;7.80;99.90;;;;;;5010880;28;20187;-74
2020/12/21 09:28:54;;;;;;;9.35;2.55;;;8.00;99.90;;;;;;5011114;28;20186;-77
2020/12/21 09:31:22;;;;;;;8.98;1.90;;;7.90;99.90;;;;;;5010816;28;20198;-75
2020/12/21 09:33:49;;;;;;;6.00;2.17;;;7.90;99.90;;;;;;5009241;28;20245;-75
2020/12/21 09:36:16;;;;;;;6.15;2.28;;;7.90;99.90;;;;;;5009686;28;20593;-74
2020/12/21 09:38:42;;;;;;;6.00;2.58;;;8.00;99.90;;;;;;5010249;28;20202;-74
2020/12/21 09:41:08;;;;;;;4.93;2.10;;;8.10;99.90;;;;;;5010461;28;20273;-74
2020/12/21 09:43:34;;;;;;;4.83;2.73;;;8.00;99.90;;;;;;5009821;28;20739;-78
2020/12/21 09:46:00;;;;;;;6.65;2.20;;;8.00;99.90;;;;;;5010936;28;20190;-76
2020/12/21 09:48:26;;;;;;;9.00;2.60;;;8.00;99.90;;;;;;5010361;28;20843;-74
2020/12/21 09:50:52;;;;;;;6.43;2.10;;;8.10;99.90;;;;;;5009717;28;20746;-74
2020/12/21 09:53:18;;;;;;;5.37;1.90;;;8.20;99.90;;;;;;5010133;28;20301;-78
2020/12/21 09:55:43;;;;;;;6.70;2.33;;;8.20;99.90;;;;;;5010857;28;20266;-78
2020/12/21 09:58:09;;;;;;;7.33;1.80;;;8.20;99.90;;;;;;5008716;28;20205;-75
2020/12/21 10:00:35;;;;;;;6.82;1.98;;;8.30;99.90;;;;;;5009998;28;20434;-76
2020/12/21 10:03:01;;;;;;;4.77;2.00;;;8.40;99.90;;;;;;5010250;28;20186;-79
2020/12/21 10:05:26;;;;;;;5.90;1.77;;;8.50;99.90;;;;;;5009104;28;21067;-75
2020/12/21 10:07:52;;;;;;;7.23;2.30;;;8.40;99.90;;;;;;5009935;28;20163;-75
2020/12/21 10:10:18;;;;;;;5.80;2.70;;;8.40;99.90;;;;;;5010531;28;20530;-74
2020/12/21 10:12:43;;;;;;;6.77;2.10;;;8.40;99.90;;;;;;5008961;28;20651;-74
2020/12/21 10:15:09;;;;;;;5.63;2.10;;;8.40;99.90;;;;;;5009892;28;20190;-76
2020/12/21 10:17:35;;;;;;;7.47;2.60;;;8.50;99.90;;;;;;5009725;28;20289;-77
2020/12/21 10:20:00;;;;;;;2.90;1.90;;;8.50;99.90;;;;;;5009581;28;20670;-75
2020/12/21 10:22:26;;;;;;;8.47;2.27;;;8.50;99.90;;;;;;5009161;28;20663;-75
2020/12/21 10:24:51;;;;;;;9.77;2.33;;;8.60;99.90;;;;;;5010255;28;20206;-81
2020/12/21 10:27:17;;;;;;;5.00;2.17;;;8.60;99.90;;;;;;5009322;28;20210;-75
2020/12/21 10:29:43;;;;;;;7.00;1.87;;;8.70;99.90;;;;;;5009354;28;20187;-76
2020/12/21 10:32:08;;;;;;;8.50;2.33;;;8.70;99.90;;;;;;5009345;28;20213;-76
2020/12/21 10:34:34;;;;;;;8.00;2.10;;;8.70;99.90;;;;;;5009350;28;20534;-79
2020/12/21 10:37:00;;;;;;;8.60;3.08;;;8.80;99.90;;;;;;5008825;28;21375;-76
2020/12/21 10:39:26;;;;;;;6.57;2.03;;;8.80;99.90;;;;;;5009578;28;20254;-77
2020/12/21 10:41:51;;;;;;;8.37;2.20;;;8.90;99.90;;;;;;5009561;28;20622;-76
2020/12/21 10:44:17;;;;;;;10.23;2.00;;;8.90;99.90;;;;;;5009259;28;20175;-75
2020/12/21 10:46:43;;;;;;;4.33;2.37;;;9.00;99.90;;;;;;5009532;28;20228;-76
2020/12/21 10:49:09;;;;;;;14.00;2.40;;;9.00;99.90;;;;;;5009393;28;20206;-76
2020/12/21 10:51:35;;;;;;;7.97;1.65;;;9.10;99.90;;;;;;5009183;28;20450;-76
2020/12/21 10:54:02;;;;;;;9.10;2.70;;;9.00;99.90;;;;;;5008908;28;20658;-76
2020/12/21 10:56:28;;;;;;;8.32;2.75;;;9.00;99.90;;;;;;5008900;28;20421;-74
2020/12/21 10:58:54;;;;;;;9.93;2.07;;;9.00;99.90;;;;;;5008300;28;20623;-77
2020/12/21 11:01:20;;;;;;;4.32;2.55;;;8.90;99.90;;;;;;5009424;28;20286;-74
2020/12/21 11:03:47;;;;;;;3.92;2.10;;;9.00;99.90;;;;;;5008770;28;20179;-75
2020/12/21 11:06:19;;;;;;;8.05;2.35;;;9.00;99.90;;;;;;5008937;28;20186;-76
2020/12/21 11:08:45;;;;;;;9.65;2.60;;;9.00;99.90;;;;;;5009135;28;20256;-78
2020/12/21 11:11:11;;;;;;;2.53;1.52;;;9.10;99.90;;;;;;5009313;28;20726;-75
2020/12/21 11:13:39;;;;;;;7.27;2.43;;;9.10;99.90;;;;;;5008336;28;20219;-75
2020/12/21 11:16:04;;;;;;;3.80;2.40;;;9.20;99.90;;;;;;5008840;28;20183;-74
2020/12/21 11:18:30;;;;;;;4.00;1.80;;;9.20;99.90;;;;;;5009348;28;20217;-76
2020/12/21 11:20:58;;;;;;;5.33;2.60;;;9.20;99.90;;;;;;5007576;28;20194;-75
2020/12/21 11:23:24;;;;;;;7.85;1.90;;;9.30;99.90;;;;;;5008553;28;20190;-75
2020/12/21 11:25:49;;;;;;;6.50;2.40;;;9.50;99.90;;;;;;5008686;28;20179;-74
2020/12/21 11:28:15;;;;;;;4.07;2.10;;;9.50;99.90;;;;;;5008556;28;20261;-74
2020/12/21 11:30:40;;;;;;;3.17;2.00;;;9.40;99.90;;;;;;5008505;28;20202;-74
2020/12/21 11:33:06;;;;;;;5.70;1.83;;;9.40;99.90;;;;;;5008799;28;20221;-75
2020/12/21 11:35:32;;;;;;;2.13;1.90;;;9.40;99.90;;;;;;5007064;28;20190;-75
2020/12/21 11:37:57;;;;;;;3.97;1.77;;;9.40;99.90;;;;;;5007885;28;20268;-75
2020/12/21 11:40:23;;;;;;;5.07;2.00;;;9.30;99.90;;;;;;5008510;28;20178;-75
2020/12/21 11:42:48;;;;;;;6.87;2.30;;;9.40;99.90;;;;;;5008175;28;20182;-74
2020/12/21 11:45:14;;;;;;;4.57;1.90;;;9.50;99.90;;;;;;5008388;28;20179;-74
2020/12/21 11:47:40;;;;;;;2.83;1.70;;;9.50;99.90;;;;;;5007860;28;20190;-75
2020/12/21 11:50:07;;;;;;;2.60;1.63;;;9.40;99.90;;;;;;5008122;28;20934;-75
2020/12/21 11:52:33;;;;;;;4.93;2.42;;;9.40;99.90;;;;;;5008343;28;20685;-78
2020/12/21 11:54:59;;;;;;;3.50;2.10;;;9.40;99.90;;;;;;5007837;28;20262;-74
2020/12/21 11:57:27;;;;;;;5.17;2.30;;;9.40;99.90;;;;;;5007499;28;20290;-76
2020/12/21 11:59:54;;;;;;;4.97;2.17;;;9.50;99.90;;;;;;5008976;28;20550;-76
2020/12/21 12:02:19;;;;;;;5.03;2.72;;;9.40;99.90;;;;;;5006572;28;20293;-76
2020/12/21 12:04:45;;;;;;;5.20;2.00;;;9.40;99.90;;;;;;4991164;28;20704;-77
2020/12/21 12:07:10;;;;;;;3.40;1.83;;;9.40;99.90;;;;;;4988620;28;20206;-75
2020/12/21 12:09:36;;;;;;;5.37;2.30;;;9.30;99.90;;;;;;4989268;28;20262;-74
2020/12/21 12:12:02;;;;;;;5.30;2.60;;;9.30;99.90;;;;;;4987626;28;20203;-75
2020/12/21 12:14:27;;;;;;;6.87;2.80;;;9.20;99.90;;;;;;4988089;28;20475;-79
2020/12/21 12:16:57;;;;;;;5.23;2.40;;;9.10;99.90;;;;;;4988673;28;20259;-77
2020/12/21 12:19:24;;;;;;;2.90;2.20;;;9.20;99.90;;;;;;4988279;28;20239;-74
2020/12/21 12:21:51;;;;;;;2.72;1.70;;;9.10;99.90;;;;;;4991961;28;20783;-75
2020/12/21 12:24:16;;;;;;;3.38;2.60;;;9.10;99.90;;;;;;4992501;28;20828;-76
2020/12/21 12:26:42;;;;;;;3.27;2.07;;;9.10;99.90;;;;;;4992643;28;20194;-75
2020/12/21 12:29:08;;;;;;;3.87;2.47;;;9.10;99.90;;;;;;4992217;28;20903;-76
2020/12/21 12:31:34;;;;;;;7.27;2.40;;;9.00;99.90;;;;;;4992105;28;20442;-75
2020/12/21 12:33:59;;;;;;;2.43;2.10;;;9.10;99.90;;;;;;4991387;28;20470;-80
2020/12/21 12:36:27;;;;;;;3.30;2.00;;;9.00;99.90;;;;;;5001481;28;20274;-74
2020/12/21 12:38:53;;;;;;;3.97;1.83;;;8.90;99.90;;;;;;5010939;28;20221;-74
2020/12/21 12:41:19;;;;;;;2.42;1.63;;;8.90;99.90;;;;;;5011434;28;20660;-78
2020/12/21 12:43:44;;;;;;;3.10;1.90;;;8.90;99.90;;;;;;5011464;28;20191;-74
2020/12/21 12:46:10;;;;;;;3.73;1.70;;;8.90;99.90;;;;;;5011401;28;20425;-74
2020/12/21 12:48:37;;;;;;;7.00;2.13;;;8.80;99.90;;;;;;5010658;28;20564;-76
2020/12/21 12:51:03;;;;;;;4.75;1.70;;;8.80;99.90;;;;;;5011818;28;20441;-75
2020/12/21 12:53:29;;;;;;;2.58;1.95;;;8.80;99.90;;;;;;5011214;28;20226;-75
2020/12/21 12:55:54;;;;;;;6.63;2.57;;;8.80;99.90;;;;;;5010668;28;20592;-74